Time;durP1;ratioP1;P1;durP2;ratioP2;P2;SDS_P1;SDS_P2;PMS_P1;PMS_P2;Temp;Humidity;BMP_temperature;BMP_pressure;BME280_temperature;BME280_humidity;BME280_pressure;Samples;Min_cycle;Max_cycle;Signal;HPM_P1;HPM_P2
2024/01/10 00:01:40;;;;;;;12.38;5.35;;;;;;;;;;10311744;28;20071;-76
2024/01/10 00:06:44;;;;;;;12.68;6.35;;;;;;;;;;10308393;28;20133;-77
2024/01/10 00:11:48;;;;;;;15.48;6.45;;;;;;;;;;10309195;28;20534;-77
2024/01/10 00:16:51;;;;;;;13.40;6.15;;;;;;;;;;10308151;28;20047;-76
2024/01/10 00:21:56;;;;;;;11.75;6.05;;;;;;;;;;10302530;28;20046;-76
2024/01/10 00:26:59;;;;;;;13.00;6.30;;;;;;;;;;10314069;28;20054;-76
2024/01/10 00:32:02;;;;;;;12.90;6.25;;;;;;;;;;10317506;28;20061;-76
2024/01/10 00:37:07;;;;;;;13.23;5.75;;;;;;;;;;10324018;28;20044;-77
2024/01/10 00:42:10;;;;;;;11.55;6.22;;;;;;;;;;10321376;28;21239;-77
2024/01/10 00:47:13;;;;;;;13.88;6.60;;;;;;;;;;10298679;28;20053;-77
2024/01/10 00:52:18;;;;;;;14.32;6.10;;;;;;;;;;10320337;28;20035;-77
2024/01/10 00:57:21;;;;;;;15.63;6.72;;;;;;;;;;10302918;28;20043;-77
2024/01/10 01:02:24;;;;;;;12.65;6.40;;;;;;;;;;10317998;28;20565;-77
2024/01/10 01:07:30;;;;;;;13.23;6.00;;;;;;;;;;10319368;28;20607;-77
2024/01/10 01:12:33;;;;;;;11.10;6.13;;;;;;;;;;10315458;28;20130;-76
2024/01/10 01:17:36;;;;;;;16.23;7.20;;;;;;;;;;10316531;28;20046;-77
2024/01/10 01:22:41;;;;;;;14.35;7.68;;;;;;;;;;10319830;28;20121;-77
2024/01/10 01:27:44;;;;;;;16.55;6.78;;;;;;;;;;10319723;28;20064;-77
2024/01/10 01:32:47;;;;;;;14.63;7.45;;;;;;;;;;10314065;28;20043;-77
2024/01/10 01:37:52;;;;;;;14.90;7.55;;;;;;;;;;10314075;28;20047;-77
2024/01/10 01:42:55;;;;;;;13.10;6.80;;;;;;;;;;10318607;28;20058;-76
2024/01/10 01:47:58;;;;;;;16.08;6.78;;;;;;;;;;10307415;28;20597;-77
2024/01/10 01:53:03;;;;;;;18.42;8.25;;;;;;;;;;10321999;28;20034;-77
2024/01/10 01:58:07;;;;;;;15.35;7.53;;;;;;;;;;10311492;28;20049;-77
2024/01/10 02:03:11;;;;;;;16.35;8.10;;;;;;;;;;10322054;28;20049;-76
2024/01/10 02:08:16;;;;;;;17.42;7.68;;;;;;;;;;10318014;28;20111;-77
2024/01/10 02:13:19;;;;;;;12.43;7.70;;;;;;;;;;10308561;28;20043;-77
2024/01/10 02:18:23;;;;;;;15.57;8.15;;;;;;;;;;10315510;28;20034;-77
2024/01/10 02:23:27;;;;;;;14.38;7.47;;;;;;;;;;10312521;28;20519;-76
2024/01/10 02:28:32;;;;;;;14.27;7.30;;;;;;;;;;10314776;28;20484;-76
2024/01/10 02:33:35;;;;;;;17.80;7.72;;;;;;;;;;10300599;28;20443;-77
2024/01/10 02:38:39;;;;;;;17.23;8.50;;;;;;;;;;10315580;28;20413;-77
2024/01/10 02:43:43;;;;;;;15.27;7.30;;;;;;;;;;10310819;28;20603;-77
2024/01/10 02:48:47;;;;;;;17.08;8.38;;;;;;;;;;10289698;28;20519;-77
2024/01/10 02:53:51;;;;;;;20.40;9.95;;;;;;;;;;10316297;28;20561;-77
2024/01/10 02:58:55;;;;;;;19.15;8.60;;;;;;;;;;10312917;28;20050;-77
2024/01/10 03:03:58;;;;;;;14.82;7.38;;;;;;;;;;10308268;28;20696;-76
2024/01/10 03:09:02;;;;;;;16.10;7.40;;;;;;;;;;10307009;28;20050;-76
2024/01/10 03:14:10;;;;;;;16.58;8.20;;;;;;;;;;10301398;28;20080;-76
2024/01/10 03:19:13;;;;;;;12.82;7.05;;;;;;;;;;10308086;28;20070;-77
2024/01/10 03:24:16;;;;;;;15.75;8.05;;;;;;;;;;10284945;28;20098;-77
2024/01/10 03:29:21;;;;;;;13.82;7.05;;;;;;;;;;10310922;28;20055;-77
2024/01/10 03:34:24;;;;;;;20.90;9.85;;;;;;;;;;10303604;28;20086;-77
2024/01/10 03:39:27;;;;;;;17.65;7.88;;;;;;;;;;10308263;28;20057;-76
2024/01/10 03:44:32;;;;;;;14.73;6.78;;;;;;;;;;10313278;28;20231;-76
2024/01/10 03:49:35;;;;;;;14.82;6.65;;;;;;;;;;10305762;28;20046;-77
2024/01/10 03:54:40;;;;;;;13.45;7.07;;;;;;;;;;10292414;28;20065;-76
2024/01/10 03:59:45;;;;;;;18.87;8.33;;;;;;;;;;10303567;28;20046;-76
2024/01/10 04:04:50;;;;;;;15.93;7.00;;;;;;;;;;10316038;28;20050;-76
2024/01/10 04:09:53;;;;;;;15.18;7.45;;;;;;;;;;10310986;28;20711;-76
2024/01/10 04:14:58;;;;;;;22.70;9.55;;;;;;;;;;10313225;28;20051;-76
2024/01/10 04:20:02;;;;;;;21.37;9.63;;;;;;;;;;10314563;28;20053;-76
2024/01/10 04:25:08;;;;;;;21.48;9.65;;;;;;;;;;10316768;28;20042;-76
2024/01/10 04:30:14;;;;;;;18.23;9.57;;;;;;;;;;10312659;28;20097;-76
2024/01/10 04:35:18;;;;;;;15.30;7.43;;;;;;;;;;10304460;28;20054;-77
2024/01/10 04:40:21;;;;;;;15.35;7.75;;;;;;;;;;10306864;28;20100;-76
2024/01/10 04:45:26;;;;;;;18.63;8.40;;;;;;;;;;10314732;28;20658;-76
2024/01/10 04:50:29;;;;;;;18.65;9.00;;;;;;;;;;10315599;28;20504;-76
2024/01/10 04:55:32;;;;;;;16.67;7.88;;;;;;;;;;10313537;28;20391;-76
2024/01/10 05:00:37;;;;;;;17.17;7.35;;;;;;;;;;10308409;28;20056;-76
2024/01/10 05:05:40;;;;;;;14.93;7.47;;;;;;;;;;10331476;23;20177;-76
2024/01/10 05:10:44;;;;;;;16.42;7.55;;;;;;;;;;10358769;28;20499;-76
2024/01/10 05:15:48;;;;;;;16.67;8.23;;;;;;;;;;10362408;28;20074;-76
2024/01/10 05:20:53;;;;;;;15.70;7.95;;;;;;;;;;10358305;28;20534;-76
2024/01/10 05:25:56;;;;;;;16.23;7.35;;;;;;;;;;10360452;28;20157;-77
2024/01/10 05:31:01;;;;;;;16.92;7.90;;;;;;;;;;10357733;28;20179;-77
2024/01/10 05:36:05;;;;;;;17.23;8.33;;;;;;;;;;10355413;28;20073;-77
2024/01/10 05:41:08;;;;;;;17.08;8.30;;;;;;;;;;10360354;28;20117;-77
2024/01/10 05:46:15;;;;;;;16.55;8.15;;;;;;;;;;10359017;28;20049;-77
2024/01/10 05:51:19;;;;;;;16.23;7.53;;;;;;;;;;10357650;28;20148;-76
2024/01/10 05:56:23;;;;;;;28.23;12.80;;;;;;;;;;10360763;28;20128;-77
2024/01/10 06:01:27;;;;;;;18.60;10.07;;;;;;;;;;10364512;28;20128;-77
2024/01/10 06:06:32;;;;;;;18.42;8.15;;;;;;;;;;10364241;28;20423;-77
2024/01/10 06:11:35;;;;;;;15.02;8.05;;;;;;;;;;10364045;28;20107;-77
2024/01/10 06:16:40;;;;;;;18.48;8.52;;;;;;;;;;10354908;28;20567;-77
2024/01/10 06:21:43;;;;;;;17.65;8.98;;;;;;;;;;10360430;28;20044;-77
2024/01/10 06:26:46;;;;;;;18.38;8.10;;;;;;;;;;10362127;28;20054;-77
2024/01/10 06:31:51;;;;;;;16.70;8.15;;;;;;;;;;10363095;28;20391;-77
2024/01/10 06:36:54;;;;;;;17.52;8.00;;;;;;;;;;10362936;28;20061;-77
2024/01/10 06:41:57;;;;;;;16.67;7.50;;;;;;;;;;10359977;28;20053;-76
2024/01/10 06:47:02;;;;;;;15.82;7.82;;;;;;;;;;10363417;28;20050;-77
2024/01/10 06:52:06;;;;;;;18.00;7.70;;;;;;;;;;10362416;28;20069;-76
2024/01/10 06:57:10;;;;;;;16.08;8.13;;;;;;;;;;10362024;28;20120;-77
2024/01/10 07:02:14;;;;;;;16.90;8.07;;;;;;;;;;10362044;28;20518;-77
2024/01/10 07:07:18;;;;;;;17.40;7.80;;;;;;;;;;10358982;28;20088;-76
2024/01/10 07:12:21;;;;;;;15.95;8.10;;;;;;;;;;10360539;28;20053;-77
2024/01/10 07:17:26;;;;;;;23.50;10.38;;;;;;;;;;10359417;28;20038;-77
2024/01/10 07:22:29;;;;;;;16.97;9.03;;;;;;;;;;10361835;28;20125;-77
2024/01/10 07:27:32;;;;;;;16.30;7.88;;;;;;;;;;10359164;28;20415;-77
2024/01/10 07:32:37;;;;;;;24.60;10.55;;;;;;;;;;10355155;28;20118;-76
2024/01/10 07:37:42;;;;;;;16.98;8.57;;;;;;;;;;10360348;28;20395;-76
2024/01/10 07:42:45;;;;;;;17.40;7.95;;;;;;;;;;10359148;28;20077;-77
2024/01/10 07:47:50;;;;;;;16.15;7.65;;;;;;;;;;10360985;28;20038;-77
2024/01/10 07:52:53;;;;;;;19.50;7.97;;;;;;;;;;10357303;28;20050;-77
2024/01/10 07:57:56;;;;;;;19.42;8.98;;;;;;;;;;10357640;28;20038;-77
2024/01/10 08:03:01;;;;;;;19.20;9.25;;;;;;;;;;10360653;28;20053;-77
2024/01/10 08:08:05;;;;;;;18.70;9.25;;;;;;;;;;10359991;28;20050;-77
2024/01/10 08:13:08;;;;;;;23.05;11.30;;;;;;;;;;10356304;28;20050;-77
2024/01/10 08:18:14;;;;;;;27.60;13.82;;;;;;;;;;10359086;28;20065;-77
2024/01/10 08:23:17;;;;;;;23.83;11.93;;;;;;;;;;10357721;28;20058;-77
2024/01/10 08:28:21;;;;;;;24.27;11.60;;;;;;;;;;10356774;28;20121;-77
2024/01/10 08:33:25;;;;;;;24.50;11.48;;;;;;;;;;10355672;28;20080;-77
2024/01/10 08:38:28;;;;;;;32.55;13.45;;;;;;;;;;10359666;28;20073;-76
2024/01/10 08:43:32;;;;;;;25.27;11.30;;;;;;;;;;10360323;28;20048;-77
2024/01/10 08:48:36;;;;;;;29.13;12.13;;;;;;;;;;10361861;28;20050;-77
2024/01/10 08:53:40;;;;;;;22.00;11.23;;;;;;;;;;10364202;28;20064;-77
2024/01/10 08:58:43;;;;;;;25.92;12.15;;;;;;;;;;10364957;28;21033;-77
2024/01/10 09:03:48;;;;;;;25.60;11.80;;;;;;;;;;10362217;28;20117;-77
2024/01/10 09:08:51;;;;;;;26.25;11.95;;;;;;;;;;10369293;28;20125;-76
2024/01/10 09:13:55;;;;;;;20.75;10.60;;;;;;;;;;10361069;28;20053;-77
2024/01/10 09:18:59;;;;;;;28.10;11.65;;;;;;;;;;10366013;28;20046;-77
2024/01/10 09:24:05;;;;;;;21.65;10.15;;;;;;;;;;10363860;28;20580;-77
2024/01/10 09:29:12;;;;;;;26.75;11.50;;;;;;;;;;10365349;28;20049;-77
2024/01/10 09:34:17;;;;;;;28.30;13.55;;;;;;;;;;10365839;28;20490;-77
2024/01/10 09:39:20;;;;;;;27.10;12.75;;;;;;;;;;10360872;28;20065;-77
2024/01/10 09:44:24;;;;;;;26.40;12.43;;;;;;;;;;10357573;28;20120;-77
2024/01/10 09:49:29;;;;;;;24.48;11.30;;;;;;;;;;10357734;28;20048;-77
2024/01/10 09:54:32;;;;;;;23.80;10.20;;;;;;;;;;10358679;28;20388;-76
2024/01/10 09:59:36;;;;;;;24.10;12.65;;;;;;;;;;10359865;28;20116;-77
2024/01/10 10:04:49;;;;;;;29.10;13.75;;;;;;;;;;10374439;28;20126;-77
2024/01/10 10:09:56;;;;;;;31.08;14.27;;;;;;;;;;10364815;28;20164;-77
2024/01/10 10:15:12;;;;;;;24.52;12.40;;;;;;;;;;10359432;28;20041;-77
2024/01/10 10:20:21;;;;;;;23.95;12.40;;;;;;;;;;10361056;28;20058;-77
2024/01/10 10:25:26;;;;;;;31.73;14.50;;;;;;;;;;10362843;28;20050;-77
2024/01/10 10:30:29;;;;;;;28.35;13.18;;;;;;;;;;10362572;28;20050;-77
2024/01/10 10:35:35;;;;;;;31.58;13.73;;;;;;;;;;10363459;28;20046;-77
2024/01/10 10:40:39;;;;;;;;;;;;;;;;;;10360765;28;20066;-77
2024/01/10 10:45:46;;;;;;;34.42;15.27;;;;;;;;;;10360611;28;19921;-77
2024/01/10 10:50:57;;;;;;;22.52;12.10;;;;;;;;;;10357998;28;20050;-77
2024/01/10 10:56:01;;;;;;;23.67;11.48;;;;;;;;;;10356894;28;20084;-77
2024/01/10 11:01:07;;;;;;;24.02;11.40;;;;;;;;;;10356502;28;20081;-77
2024/01/10 11:06:11;;;;;;;28.85;13.45;;;;;;;;;;10365529;23;20052;-76
2024/01/10 11:11:26;;;;;;;31.10;14.88;;;;;;;;;;10307052;28;20058;-76
2024/01/10 11:16:48;;;;;;;24.95;13.07;;;;;;;;;;10318736;28;20423;-76
2024/01/10 11:22:04;;;;;;;28.17;13.90;;;;;;;;;;10317160;28;20050;-77
2024/01/10 11:27:11;;;;;;;30.67;13.80;;;;;;;;;;10317932;28;20046;-76
2024/01/10 11:32:15;;;;;;;27.15;14.30;;;;;;;;;;10318765;28;20050;-76
2024/01/10 11:37:20;;;;;;;24.60;12.40;;;;;;;;;;10314317;28;20089;-76
2024/01/10 11:42:24;;;;;;;31.90;15.65;;;;;;;;;;10318524;28;20157;-77
2024/01/10 11:47:28;;;;;;;23.30;11.77;;;;;;;;;;10319743;28;20042;-76
2024/01/10 11:52:37;;;;;;;24.13;11.32;;;;;;;;;;10318626;28;20039;-76
2024/01/10 11:57:40;;;;;;;23.30;11.65;;;;;;;;;;10300219;28;20038;-76
2024/01/10 12:02:45;;;;;;;22.80;10.60;;;;;;;;;;10318355;28;20121;-76
2024/01/10 12:07:53;;;;;;;27.20;13.50;;;;;;;;;;10322414;28;20049;-76
2024/01/10 12:12:57;;;;;;;23.58;12.73;;;;;;;;;;10318524;28;20138;-76
2024/01/10 12:18:01;;;;;;;23.23;11.45;;;;;;;;;;10318740;28;20403;-76
2024/01/10 12:23:06;;;;;;;26.48;11.93;;;;;;;;;;10299791;28;20719;-76
2024/01/10 12:28:09;;;;;;;18.20;9.30;;;;;;;;;;10323803;28;20038;-76
2024/01/10 12:33:12;;;;;;;18.05;9.10;;;;;;;;;;10308757;28;20504;-76
2024/01/10 12:38:18;;;;;;;18.52;9.68;;;;;;;;;;10326184;28;20125;-76
2024/01/10 12:43:21;;;;;;;25.75;12.95;;;;;;;;;;10326579;28;20531;-76
2024/01/10 12:48:25;;;;;;;21.70;10.52;;;;;;;;;;10304155;28;20048;-76
2024/01/10 12:53:30;;;;;;;25.08;12.32;;;;;;;;;;10324650;28;20105;-76
2024/01/10 12:58:35;;;;;;;22.60;11.53;;;;;;;;;;10326268;28;20046;-77
2024/01/10 13:03:39;;;;;;;18.27;10.30;;;;;;;;;;10324723;28;20138;-76
2024/01/10 13:08:44;;;;;;;19.15;10.18;;;;;;;;;;10318195;28;20037;-76
2024/01/10 13:13:47;;;;;;;22.70;11.27;;;;;;;;;;10301641;28;20046;-76
2024/01/10 13:18:53;;;;;;;21.75;10.75;;;;;;;;;;10323997;28;20046;-77
2024/01/10 13:23:57;;;;;;;22.87;12.30;;;;;;;;;;10316260;28;20054;-76
2024/01/10 13:29:02;;;;;;;20.52;10.32;;;;;;;;;;10321798;28;20038;-76
2024/01/10 13:34:07;;;;;;;20.83;10.85;;;;;;;;;;10313808;28;20681;-76
2024/01/10 13:39:15;;;;;;;24.33;11.85;;;;;;;;;;10318473;28;20046;-77
2024/01/10 13:44:18;;;;;;;24.85;11.85;;;;;;;;;;10323055;28;20045;-77
2024/01/10 13:49:21;;;;;;;24.60;11.48;;;;;;;;;;10302377;28;20058;-76
2024/01/10 13:54:26;;;;;;;24.02;12.80;;;;;;;;;;10313725;28;20042;-76
2024/01/10 13:59:29;;;;;;;21.50;10.75;;;;;;;;;;10320021;28;20053;-76
2024/01/10 14:04:33;;;;;;;24.35;12.25;;;;;;;;;;10300413;28;20042;-77
2024/01/10 14:09:37;;;;;;;22.17;12.07;;;;;;;;;;10286706;28;20536;-77
2024/01/10 14:14:41;;;;;;;24.65;11.50;;;;;;;;;;10319243;28;20046;-76
2024/01/10 14:19:44;;;;;;;21.88;11.45;;;;;;;;;;10320302;28;20038;-77
2024/01/10 14:24:49;;;;;;;21.55;10.25;;;;;;;;;;10321179;28;20042;-76
2024/01/10 14:29:53;;;;;;;29.02;14.85;;;;;;;;;;10320273;28;20050;-76
2024/01/10 14:34:57;;;;;;;22.52;12.20;;;;;;;;;;10303439;28;20053;-76
2024/01/10 14:40:01;;;;;;;23.60;11.27;;;;;;;;;;10321806;28;20112;-76
2024/01/10 14:45:05;;;;;;;26.17;13.30;;;;;;;;;;10317985;28;20073;-76
2024/01/10 14:50:10;;;;;;;20.85;10.23;;;;;;;;;;10318514;28;20545;-76
2024/01/10 14:55:15;;;;;;;20.33;10.98;;;;;;;;;;10320812;28;20046;-76
2024/01/10 15:00:19;;;;;;;23.15;11.20;;;;;;;;;;10318032;28;20053;-76
2024/01/10 15:05:23;;;;;;;19.00;9.82;;;;;;;;;;10302920;28;20034;-76
2024/01/10 15:10:28;;;;;;;17.30;9.70;;;;;;;;;;10320315;28;20045;-76
2024/01/10 15:15:32;;;;;;;16.33;8.57;;;;;;;;;;10316386;28;20691;-76
2024/01/10 15:20:35;;;;;;;18.38;9.18;;;;;;;;;;10317556;28;20050;-76
2024/01/10 15:25:41;;;;;;;23.67;10.75;;;;;;;;;;10300952;28;20130;-77
2024/01/10 15:30:44;;;;;;;23.35;11.98;;;;;;;;;;10314183;28;20431;-76
2024/01/10 15:35:50;;;;;;;27.00;13.68;;;;;;;;;;10318917;28;20137;-76
2024/01/10 15:40:56;;;;;;;28.02;14.18;;;;;;;;;;10317827;28;20053;-76
2024/01/10 15:45:59;;;;;;;26.42;13.30;;;;;;;;;;10314177;28;20129;-76
2024/01/10 15:51:03;;;;;;;35.05;15.70;;;;;;;;;;10318926;28;20066;-76
2024/01/10 15:56:07;;;;;;;26.45;14.23;;;;;;;;;;10317075;28;20054;-77
2024/01/10 16:01:11;;;;;;;27.17;12.00;;;;;;;;;;10313808;28;20057;-76
2024/01/10 16:06:16;;;;;;;28.63;12.57;;;;;;;;;;10313287;28;20046;-76
2024/01/10 16:11:21;;;;;;;41.80;18.00;;;;;;;;;;10318397;28;20377;-76
2024/01/10 16:16:26;;;;;;;48.88;20.27;;;;;;;;;;10297052;28;20050;-76
2024/01/10 16:21:32;;;;;;;37.75;15.52;;;;;;;;;;10317560;28;20748;-76
2024/01/10 16:26:37;;;;;;;28.77;12.38;;;;;;;;;;10298505;28;20046;-76
2024/01/10 16:31:40;;;;;;;21.88;10.07;;;;;;;;;;10321344;28;20034;-76
2024/01/10 16:36:44;;;;;;;17.70;9.02;;;;;;;;;;10305872;28;20034;-76
2024/01/10 16:41:48;;;;;;;17.25;9.45;;;;;;;;;;10325352;28;20046;-76
2024/01/10 16:46:52;;;;;;;18.83;9.52;;;;;;;;;;10324019;28;20488;-76
2024/01/10 16:51:55;;;;;;;18.92;9.25;;;;;;;;;;10328251;28;20045;-76
2024/01/10 16:57:00;;;;;;;24.20;11.90;;;;;;;;;;10328972;28;20069;-76
2024/01/10 17:02:03;;;;;;;27.40;12.65;;;;;;;;;;10324823;28;20046;-76
2024/01/10 17:07:06;;;;;;;25.55;12.63;;;;;;;;;;10338277;23;20068;-77
2024/01/10 17:12:11;;;;;;;30.23;13.65;;;;;;;;;;10322687;28;20313;-77
2024/01/10 17:17:14;;;;;;;25.50;12.00;;;;;;;;;;10313231;28;20062;-77
2024/01/10 17:22:17;;;;;;;24.55;12.27;;;;;;;;;;10331703;28;20133;-77
2024/01/10 17:27:22;;;;;;;27.67;12.82;;;;;;;;;;10329974;28;20527;-77
2024/01/10 17:32:25;;;;;;;22.38;12.18;;;;;;;;;;10323701;28;20035;-76
2024/01/10 17:37:29;;;;;;;22.55;11.80;;;;;;;;;;10313006;28;20129;-77
2024/01/10 17:42:33;;;;;;;25.38;12.05;;;;;;;;;;10326537;28;20060;-77
2024/01/10 17:47:37;;;;;;;28.38;12.90;;;;;;;;;;10327923;28;20058;-77
2024/01/10 17:52:40;;;;;;;30.20;14.23;;;;;;;;;;10331271;28;20156;-77
2024/01/10 17:57:45;;;;;;;26.80;13.65;;;;;;;;;;10333050;28;20418;-77
2024/01/10 18:02:48;;;;;;;30.88;14.27;;;;;;;;;;10314368;28;20137;-77
2024/01/10 18:07:51;;;;;;;50.10;23.75;;;;;;;;;;10329607;28;20559;-76
2024/01/10 18:12:57;;;;;;;58.08;23.05;;;;;;;;;;10329550;28;20039;-77
2024/01/10 18:18:00;;;;;;;49.88;21.50;;;;;;;;;;10330554;28;20594;-77
2024/01/10 18:23:07;;;;;;;47.83;20.27;;;;;;;;;;10327520;28;20042;-77
2024/01/10 18:28:12;;;;;;;43.13;19.92;;;;;;;;;;10322588;28;20073;-76
2024/01/10 18:33:16;;;;;;;40.83;17.80;;;;;;;;;;10322901;28;20523;-77
2024/01/10 18:38:19;;;;;;;36.13;18.13;;;;;;;;;;10311518;28;20038;-77
2024/01/10 18:43:24;;;;;;;34.53;16.58;;;;;;;;;;10301141;28;20050;-77
2024/01/10 18:48:28;;;;;;;36.08;17.33;;;;;;;;;;10326702;28;20057;-77
2024/01/10 18:53:32;;;;;;;38.42;17.55;;;;;;;;;;10313162;28;20593;-77
2024/01/10 18:58:37;;;;;;;38.45;17.92;;;;;;;;;;10324525;28;20050;-77
2024/01/10 19:03:40;;;;;;;29.40;15.18;;;;;;;;;;10336503;28;20038;-77
2024/01/10 19:08:43;;;;;;;29.48;15.48;;;;;;;;;;10322239;28;20054;-77
2024/01/10 19:13:48;;;;;;;32.60;15.70;;;;;;;;;;10320267;28;20054;-77
2024/01/10 19:18:52;;;;;;;30.48;14.35;;;;;;;;;;10339741;28;20088;-77
2024/01/10 19:23:56;;;;;;;29.20;14.35;;;;;;;;;;10325713;28;20138;-77
2024/01/10 19:29:00;;;;;;;28.38;14.10;;;;;;;;;;10304594;28;20049;-77
2024/01/10 19:34:04;;;;;;;30.20;15.07;;;;;;;;;;10323014;28;20050;-77
2024/01/10 19:39:08;;;;;;;26.23;13.25;;;;;;;;;;10319534;28;20137;-77
2024/01/10 19:44:12;;;;;;;24.65;12.88;;;;;;;;;;10323087;28;20052;-77
2024/01/10 19:49:15;;;;;;;31.67;14.45;;;;;;;;;;10319892;28;20584;-77
2024/01/10 19:54:19;;;;;;;29.58;13.93;;;;;;;;;;10321160;28;20048;-77
2024/01/10 19:59:23;;;;;;;32.58;14.52;;;;;;;;;;10321609;28;20042;-77
2024/01/10 20:04:27;;;;;;;32.13;14.85;;;;;;;;;;10321793;28;20046;-77
2024/01/10 20:09:31;;;;;;;27.80;14.27;;;;;;;;;;10319874;28;20503;-77
2024/01/10 20:14:35;;;;;;;26.88;13.90;;;;;;;;;;10321124;28;20050;-77
2024/01/10 20:19:40;;;;;;;31.38;14.43;;;;;;;;;;10321982;28;20046;-77
2024/01/10 20:24:44;;;;;;;32.53;14.70;;;;;;;;;;10320667;28;20042;-77
2024/01/10 20:29:48;;;;;;;32.70;15.23;;;;;;;;;;10333432;28;20046;-77
2024/01/10 20:34:52;;;;;;;36.38;16.77;;;;;;;;;;10302392;28;20069;-77
2024/01/10 20:39:57;;;;;;;38.53;16.63;;;;;;;;;;10333175;28;20060;-77
2024/01/10 20:45:03;;;;;;;33.58;16.27;;;;;;;;;;10323050;28;20042;-77
2024/01/10 20:50:07;;;;;;;;;;;;;;;;;;10339969;28;20042;-77
2024/01/10 20:55:10;;;;;;;35.28;16.33;;;;;;;;;;10327257;28;19937;-77
2024/01/10 21:00:22;;;;;;;33.75;16.05;;;;;;;;;;10329551;28;20049;-77
2024/01/10 21:05:25;;;;;;;34.60;17.27;;;;;;;;;;10331501;28;20050;-77
2024/01/10 21:10:30;;;;;;;35.10;17.85;;;;;;;;;;10327515;28;20463;-77
2024/01/10 21:15:34;;;;;;;29.63;15.63;;;;;;;;;;10332155;28;20049;-77
2024/01/10 21:20:38;;;;;;;36.70;16.73;;;;;;;;;;10327946;28;20050;-77
2024/01/10 21:25:42;;;;;;;32.45;14.88;;;;;;;;;;10331709;28;20054;-77
2024/01/10 21:30:46;;;;;;;33.63;15.65;;;;;;;;;;10336310;28;20511;-77
2024/01/10 21:35:50;;;;;;;28.60;14.25;;;;;;;;;;10328271;28;20042;-77
2024/01/10 21:40:54;;;;;;;34.67;15.32;;;;;;;;;;10328551;28;20139;-77
2024/01/10 21:45:58;;;;;;;29.67;14.40;;;;;;;;;;10324943;28;20137;-76
2024/01/10 21:51:02;;;;;;;31.60;14.45;;;;;;;;;;10339368;28;20614;-77
2024/01/10 21:56:06;;;;;;;25.77;12.65;;;;;;;;;;10328515;28;20398;-77
2024/01/10 22:01:14;;;;;;;27.38;13.73;;;;;;;;;;10324596;28;20137;-76
2024/01/10 22:06:17;;;;;;;30.02;13.45;;;;;;;;;;10326425;28;20034;-76
2024/01/10 22:11:21;;;;;;;34.08;15.35;;;;;;;;;;10327687;28;20034;-76
2024/01/10 22:16:27;;;;;;;31.92;15.40;;;;;;;;;;10324918;28;20052;-76
2024/01/10 22:21:30;;;;;;;32.97;15.30;;;;;;;;;;10326473;28;20045;-76
2024/01/10 22:26:34;;;;;;;37.28;15.80;;;;;;;;;;10328881;28;20046;-76
2024/01/10 22:31:38;;;;;;;26.10;13.43;;;;;;;;;;10334694;28;20081;-76
2024/01/10 22:36:42;;;;;;;30.20;13.13;;;;;;;;;;10322206;28;20035;-76
2024/01/10 22:41:45;;;;;;;29.25;13.30;;;;;;;;;;10322686;28;20085;-76
2024/01/10 22:46:49;;;;;;;24.45;12.73;;;;;;;;;;10320111;28;20630;-76
2024/01/10 22:51:53;;;;;;;31.08;14.07;;;;;;;;;;10325199;28;20037;-77
2024/01/10 22:56:56;;;;;;;29.35;13.60;;;;;;;;;;10328984;28;20050;-76
2024/01/10 23:02:00;;;;;;;23.73;11.63;;;;;;;;;;10332390;28;20039;-77
2024/01/10 23:07:04;;;;;;;28.10;13.02;;;;;;;;;;10362910;23;20045;-75
2024/01/10 23:12:08;;;;;;;31.23;13.23;;;;;;;;;;10392945;28;20058;-75
2024/01/10 23:17:13;;;;;;;27.80;12.63;;;;;;;;;;10387600;28;20775;-76
2024/01/10 23:22:16;;;;;;;30.13;14.60;;;;;;;;;;10389633;28;20247;-75
2024/01/10 23:27:19;;;;;;;26.67;12.65;;;;;;;;;;10392402;28;20532;-76
2024/01/10 23:32:25;;;;;;;26.13;13.18;;;;;;;;;;10388393;28;20072;-75
2024/01/10 23:37:28;;;;;;;;;;;;;;;;;;10389095;28;20554;-75
2024/01/10 23:42:32;;;;;;;21.83;10.93;;;;;;;;;;10385033;28;19922;-76
2024/01/10 23:47:36;;;;;;;21.83;11.23;;;;;;;;;;10390680;28;20080;-75
2024/01/10 23:52:39;;;;;;;25.05;11.38;;;;;;;;;;10397173;28;20133;-76
2024/01/10 23:57:43;;;;;;;25.50;12.48;;;;;;;;;;10386430;28;20052;-76
